Time;durP1;ratioP1;P1;durP2;ratioP2;P2;SDS_P1;SDS_P2;PMS_P1;PMS_P2;Temp;Humidity;BMP_temperature;BMP_pressure;BME280_temperature;BME280_humidity;BME280_pressure;Samples;Min_cycle;Max_cycle;Signal;HPM_P1;HPM_P2
2023/06/30 00:00:50;;;;;;;27.50;19.47;;;22.20;78.80;;;;;;5033844;28;20435;-69
2023/06/30 00:03:17;;;;;;;26.87;19.77;;;22.10;80.10;;;;;;5032935;28;20480;-69
2023/06/30 00:05:45;;;;;;;26.10;19.30;;;22.00;81.50;;;;;;5033371;28;20554;-68
2023/06/30 00:08:12;;;;;;;27.00;18.20;;;22.00;82.70;;;;;;5033679;28;20459;-69
2023/06/30 00:10:39;;;;;;;30.40;19.93;;;22.00;84.00;;;;;;5033276;28;20905;-69
2023/06/30 00:13:06;;;;;;;26.13;19.03;;;22.00;84.90;;;;;;5027514;28;20502;-69
2023/06/30 00:15:33;;;;;;;30.83;18.50;;;21.90;85.10;;;;;;5013828;28;20470;-69
2023/06/30 00:18:02;;;;;;;28.53;17.30;;;21.80;85.30;;;;;;5013458;28;20470;-70
2023/06/30 00:20:28;;;;;;;31.77;20.00;;;21.80;86.00;;;;;;5013466;28;20439;-69
2023/06/30 00:22:55;;;;;;;27.50;20.30;;;21.80;86.60;;;;;;5013429;28;20484;-68
2023/06/30 00:25:22;;;;;;;29.33;20.00;;;21.70;86.70;;;;;;5013333;28;20502;-68
2023/06/30 00:27:49;;;;;;;29.40;20.37;;;21.60;86.20;;;;;;5013749;28;20450;-69
2023/06/30 00:30:16;;;;;;;28.23;19.20;;;21.60;87.10;;;;;;5013756;28;20458;-70
2023/06/30 00:32:43;;;;;;;32.90;19.67;;;21.40;88.50;;;;;;5015778;28;20471;-69
2023/06/30 00:35:11;;;;;;;28.47;19.80;;;21.30;89.00;;;;;;5033092;28;20473;-69
2023/06/30 00:37:38;;;;;;;29.10;20.43;;;21.30;89.30;;;;;;5033429;28;20466;-69
2023/06/30 00:40:06;;;;;;;28.50;19.47;;;21.30;89.60;;;;;;5033146;28;20913;-69
2023/06/30 00:42:33;;;;;;;30.13;21.53;;;21.20;90.00;;;;;;5032509;28;20494;-69
2023/06/30 00:45:00;;;;;;;30.60;19.70;;;21.10;90.50;;;;;;5033357;28;20821;-68
2023/06/30 00:47:27;;;;;;;33.87;19.80;;;21.00;90.80;;;;;;5033388;28;20466;-68
2023/06/30 00:49:54;;;;;;;28.13;21.50;;;20.90;91.40;;;;;;5032922;28;20947;-69
2023/06/30 00:52:22;;;;;;;28.10;18.87;;;20.80;91.70;;;;;;5033322;28;20820;-70
2023/06/30 00:54:49;;;;;;;29.20;20.80;;;20.80;91.70;;;;;;5032775;28;20477;-69
2023/06/30 00:57:16;;;;;;;27.33;20.63;;;20.80;91.80;;;;;;5033917;28;20956;-69
2023/06/30 00:59:43;;;;;;;25.47;17.73;;;20.80;92.00;;;;;;5036804;28;20467;-69
2023/06/30 01:02:16;;;;;;;30.10;21.30;;;20.80;92.00;;;;;;5036709;28;20926;-69
2023/06/30 01:04:49;;;;;;;27.60;20.10;;;20.70;92.30;;;;;;5036063;28;20493;-69
2023/06/30 01:07:23;;;;;;;29.60;22.60;;;20.70;92.40;;;;;;5037184;28;20458;-69
2023/06/30 01:09:57;;;;;;;30.13;20.93;;;20.70;92.50;;;;;;5037178;28;20452;-69
2023/06/30 01:12:24;;;;;;;30.87;20.40;;;20.70;92.60;;;;;;5036587;28;20422;-69
2023/06/30 01:14:53;;;;;;;26.10;19.70;;;20.70;92.80;;;;;;5036417;28;20440;-69
2023/06/30 01:17:21;;;;;;;25.83;19.80;;;20.70;92.90;;;;;;5036494;28;21001;-69
2023/06/30 01:19:52;;;;;;;29.40;21.10;;;20.70;93.10;;;;;;5036605;28;20484;-69
2023/06/30 01:22:24;;;;;;;26.50;20.23;;;20.60;93.20;;;;;;5036814;28;20428;-69
2023/06/30 01:24:57;;;;;;;26.77;19.07;;;20.60;93.10;;;;;;5032631;28;20898;-69
2023/06/30 01:27:25;;;;;;;34.07;20.43;;;20.50;93.20;;;;;;5036407;28;20484;-69
2023/06/30 01:29:53;;;;;;;32.23;21.50;;;20.50;93.20;;;;;;5036249;28;20912;-69
2023/06/30 01:32:21;;;;;;;25.00;18.80;;;20.50;93.40;;;;;;5036103;28;20561;-69
2023/06/30 01:34:48;;;;;;;29.07;21.07;;;20.60;93.80;;;;;;5018022;28;20449;-69
2023/06/30 01:37:15;;;;;;;26.27;18.73;;;20.60;94.00;;;;;;5016657;28;20490;-69
2023/06/30 01:39:42;;;;;;;27.20;20.67;;;20.60;94.10;;;;;;5016493;28;20497;-69
2023/06/30 01:42:11;;;;;;;30.03;20.50;;;20.60;94.40;;;;;;5016223;28;20516;-69
2023/06/30 01:44:39;;;;;;;28.33;19.63;;;20.60;94.50;;;;;;5016107;28;20810;-69
2023/06/30 01:47:08;;;;;;;27.13;18.93;;;20.60;94.50;;;;;;5016032;28;20473;-69
2023/06/30 01:49:35;;;;;;;29.10;20.23;;;20.60;94.20;;;;;;5016272;28;20560;-69
2023/06/30 01:52:03;;;;;;;27.73;20.90;;;20.70;94.00;;;;;;5016249;28;20464;-69
2023/06/30 01:54:30;;;;;;;27.20;20.17;;;20.70;93.80;;;;;;5031335;28;20441;-69
2023/06/30 01:56:57;;;;;;;29.27;20.00;;;20.70;94.00;;;;;;5035615;28;20477;-69
2023/06/30 01:59:25;;;;;;;27.23;22.23;;;20.60;94.30;;;;;;5035522;28;20479;-69
2023/06/30 02:01:52;;;;;;;24.77;17.40;;;20.60;94.30;;;;;;5035795;28;20474;-68
2023/06/30 02:04:19;;;;;;;33.27;20.83;;;20.60;94.40;;;;;;5020530;28;20464;-68
2023/06/30 02:06:46;;;;;;;26.03;20.10;;;20.60;94.90;;;;;;5015658;28;20511;-69
2023/06/30 02:09:13;;;;;;;26.30;19.80;;;20.60;95.10;;;;;;5014484;28;20470;-69
2023/06/30 02:11:40;;;;;;;31.00;19.70;;;20.60;95.20;;;;;;5016079;28;20485;-69
2023/06/30 02:14:07;;;;;;;28.13;20.20;;;20.60;95.10;;;;;;5015732;28;20442;-70
2023/06/30 02:16:35;;;;;;;31.70;20.37;;;20.60;95.20;;;;;;5016199;28;20434;-69
2023/06/30 02:19:02;;;;;;;29.90;20.13;;;20.60;95.00;;;;;;5015514;28;20925;-69
2023/06/30 02:21:29;;;;;;;25.83;18.27;;;20.60;94.90;;;;;;5015587;28;20477;-69
2023/06/30 02:23:56;;;;;;;29.00;20.87;;;20.60;95.00;;;;;;5015429;28;20469;-69
2023/06/30 02:26:23;;;;;;;26.50;19.33;;;20.60;95.50;;;;;;5015420;28;20654;-69
2023/06/30 02:28:50;;;;;;;27.40;20.10;;;20.50;95.50;;;;;;5015965;28;20466;-69
2023/06/30 02:31:17;;;;;;;26.80;18.60;;;20.50;95.30;;;;;;5019291;28;20452;-69
2023/06/30 02:33:45;;;;;;;26.17;19.10;;;20.40;95.50;;;;;;5034490;28;20433;-69
2023/06/30 02:36:12;;;;;;;29.57;19.53;;;20.40;95.70;;;;;;5034940;28;20833;-69
2023/06/30 02:38:39;;;;;;;27.70;21.60;;;20.40;96.00;;;;;;5035312;28;20463;-69
2023/06/30 02:41:06;;;;;;;29.17;21.67;;;20.40;95.80;;;;;;5032543;28;20479;-69
2023/06/30 02:43:33;;;;;;;27.13;19.70;;;20.40;96.30;;;;;;5035171;28;20517;-68
2023/06/30 02:46:00;;;;;;;30.03;21.63;;;20.30;96.60;;;;;;5035116;28;20507;-68
2023/06/30 02:48:27;;;;;;;26.53;20.10;;;20.30;96.50;;;;;;5035139;28;20840;-69
2023/06/30 02:50:55;;;;;;;30.80;19.87;;;20.30;96.30;;;;;;5033865;28;20469;-69
2023/06/30 02:53:22;;;;;;;25.20;18.50;;;20.30;96.30;;;;;;5014907;28;20431;-68
2023/06/30 02:55:49;;;;;;;29.00;20.83;;;20.30;96.10;;;;;;5015268;28;20806;-69
2023/06/30 02:58:16;;;;;;;30.87;20.23;;;20.30;96.50;;;;;;5015139;28;20488;-69
2023/06/30 03:00:43;;;;;;;26.20;18.63;;;20.30;96.90;;;;;;5014818;28;20509;-68
2023/06/30 03:03:10;;;;;;;28.00;19.47;;;20.30;97.20;;;;;;5014888;28;20497;-69
2023/06/30 03:05:37;;;;;;;28.20;19.73;;;20.30;97.20;;;;;;5014523;28;20462;-70
2023/06/30 03:08:06;;;;;;;32.50;21.47;;;20.30;97.00;;;;;;5014645;28;20480;-69
2023/06/30 03:10:33;;;;;;;28.87;20.73;;;20.10;97.80;;;;;;5014697;28;20996;-69
2023/06/30 03:12:59;;;;;;;29.00;19.90;;;20.10;97.80;;;;;;5015820;28;20465;-69
2023/06/30 03:15:26;;;;;;;27.23;20.13;;;20.10;97.90;;;;;;4995000;28;20935;-69
2023/06/30 03:17:55;;;;;;;30.00;21.20;;;20.10;98.10;;;;;;4995252;28;20434;-69
2023/06/30 03:20:22;;;;;;;26.67;20.17;;;20.00;97.90;;;;;;4994797;28;20442;-69
2023/06/30 03:22:49;;;;;;;27.90;18.53;;;20.00;98.30;;;;;;4995189;28;20470;-69
2023/06/30 03:25:17;;;;;;;27.10;20.30;;;20.00;98.50;;;;;;5024356;28;20516;-69
2023/06/30 03:27:44;;;;;;;25.73;18.97;;;20.00;98.20;;;;;;5034171;28;20907;-69
2023/06/30 03:30:12;;;;;;;32.10;21.60;;;20.00;98.20;;;;;;5034430;28;20438;-69
2023/06/30 03:32:39;;;;;;;24.53;18.43;;;20.00;98.50;;;;;;5034380;28;20825;-69
2023/06/30 03:35:07;;;;;;;25.73;18.93;;;20.00;99.10;;;;;;5034163;28;20470;-68
2023/06/30 03:37:34;;;;;;;24.37;17.83;;;20.00;99.00;;;;;;5034244;28;20433;-69
2023/06/30 03:40:04;;;;;;;25.30;17.73;;;20.00;99.50;;;;;;5033865;28;20923;-69
2023/06/30 03:42:32;;;;;;;27.67;19.50;;;20.00;99.30;;;;;;5034126;28;20872;-69
2023/06/30 03:45:00;;;;;;;25.50;19.77;;;20.00;99.50;;;;;;5033046;28;20476;-69
2023/06/30 03:47:27;;;;;;;25.47;18.30;;;20.00;99.80;;;;;;5034045;28;20444;-69
2023/06/30 03:49:53;;;;;;;24.67;17.53;;;20.00;99.90;;;;;;5033725;28;20460;-69
2023/06/30 03:52:20;;;;;;;27.37;17.90;;;20.00;99.90;;;;;;5033552;28;20458;-69
2023/06/30 03:54:47;;;;;;;27.50;18.80;;;20.00;99.90;;;;;;5033418;28;20852;-69
2023/06/30 03:57:14;;;;;;;28.03;19.20;;;20.00;99.90;;;;;;5033623;28;20480;-69
2023/06/30 03:59:43;;;;;;;28.40;18.83;;;20.00;99.90;;;;;;5033635;28;20931;-69
2023/06/30 04:02:10;;;;;;;27.57;20.20;;;20.10;99.70;;;;;;5033819;28;20486;-69
2023/06/30 04:04:36;;;;;;;25.43;19.37;;;20.10;99.70;;;;;;5032912;28;20936;-69
2023/06/30 04:07:04;;;;;;;24.77;18.07;;;20.00;99.80;;;;;;5033731;28;20501;-69
2023/06/30 04:09:31;;;;;;;25.80;17.73;;;20.10;99.90;;;;;;5033764;28;20486;-69
2023/06/30 04:11:57;;;;;;;29.77;19.17;;;20.10;99.90;;;;;;5033719;28;20477;-69
2023/06/30 04:14:24;;;;;;;27.43;17.80;;;20.10;99.90;;;;;;5026243;28;20507;-69
2023/06/30 04:16:53;;;;;;;30.63;18.63;;;20.10;99.80;;;;;;5014055;28;20474;-68
2023/06/30 04:19:20;;;;;;;26.27;18.80;;;20.10;99.90;;;;;;5013797;28;20477;-69
2023/06/30 04:21:47;;;;;;;28.47;19.83;;;20.10;99.90;;;;;;5014215;28;20469;-69
2023/06/30 04:24:14;;;;;;;27.73;19.70;;;20.10;99.90;;;;;;5013610;28;20431;-69
2023/06/30 04:26:41;;;;;;;29.27;19.47;;;20.20;99.90;;;;;;5013667;28;20478;-69
2023/06/30 04:29:08;;;;;;;27.30;19.00;;;20.20;99.90;;;;;;5013843;28;20465;-69
2023/06/30 04:31:35;;;;;;;26.77;19.50;;;20.20;99.90;;;;;;5013885;28;20835;-69
2023/06/30 04:34:03;;;;;;;26.33;18.97;;;20.20;99.90;;;;;;5017281;28;20440;-70
2023/06/30 04:36:30;;;;;;;22.50;17.37;;;20.20;99.90;;;;;;5017774;28;20469;-69
2023/06/30 04:38:57;;;;;;;27.07;19.17;;;20.20;99.90;;;;;;5017818;28;20840;-69
2023/06/30 04:41:25;;;;;;;26.60;19.27;;;20.20;99.90;;;;;;5017494;28;20439;-69
2023/06/30 04:43:52;;;;;;;26.37;19.77;;;20.20;99.90;;;;;;5017065;28;20812;-69
2023/06/30 04:46:19;;;;;;;26.23;18.57;;;20.30;99.90;;;;;;5017239;28;20531;-69
2023/06/30 04:48:46;;;;;;;31.80;20.03;;;20.30;99.90;;;;;;5017475;28;20820;-69
2023/06/30 04:51:15;;;;;;;25.90;19.17;;;20.30;99.90;;;;;;5017258;28;20906;-69
2023/06/30 04:53:42;;;;;;;28.07;18.20;;;20.20;99.90;;;;;;5016844;28;20918;-69
2023/06/30 04:56:09;;;;;;;27.87;20.13;;;20.20;99.80;;;;;;5017477;28;20473;-69
2023/06/30 04:58:36;;;;;;;27.60;19.47;;;20.10;99.80;;;;;;5017436;28;20515;-69
2023/06/30 05:01:04;;;;;;;28.23;19.60;;;20.10;99.90;;;;;;5017400;28;20468;-69
2023/06/30 05:03:31;;;;;;;25.77;19.20;;;20.10;99.90;;;;;;5016708;28;20489;-69
2023/06/30 05:05:59;;;;;;;28.73;19.17;;;20.10;99.90;;;;;;5017217;28;20810;-68
2023/06/30 05:08:27;;;;;;;25.20;19.37;;;20.20;99.90;;;;;;5017228;28;20771;-69
2023/06/30 05:10:54;;;;;;;27.30;18.37;;;20.10;99.90;;;;;;5015616;28;20909;-69
2023/06/30 05:13:21;;;;;;;28.70;19.10;;;20.10;99.90;;;;;;5016819;28;20444;-69
2023/06/30 05:15:48;;;;;;;24.23;18.40;;;20.10;99.90;;;;;;5017731;28;20847;-69
2023/06/30 05:18:15;;;;;;;22.40;17.40;;;20.10;99.90;;;;;;5016772;28;20480;-69
2023/06/30 05:20:42;;;;;;;28.73;20.20;;;20.10;99.90;;;;;;5016679;28;20965;-69
2023/06/30 05:23:09;;;;;;;25.50;18.67;;;20.10;99.90;;;;;;5017098;28;20507;-69
2023/06/30 05:25:37;;;;;;;26.43;17.80;;;20.10;99.90;;;;;;5016349;28;20917;-69
2023/06/30 05:28:05;;;;;;;27.37;18.80;;;20.10;99.90;;;;;;5016597;28;20901;-69
2023/06/30 05:30:32;;;;;;;25.50;19.77;;;20.00;99.90;;;;;;5016827;28;20512;-69
2023/06/30 05:32:59;;;;;;;29.63;19.87;;;20.00;99.90;;;;;;5016833;28;20778;-69
2023/06/30 05:35:25;;;;;;;24.30;17.17;;;19.90;99.90;;;;;;5016300;28;20529;-69
2023/06/30 05:37:53;;;;;;;28.70;20.97;;;19.90;99.90;;;;;;5016717;28;20438;-69
2023/06/30 05:40:20;;;;;;;28.10;19.70;;;19.90;99.90;;;;;;5015285;28;20519;-70
2023/06/30 05:42:54;;;;;;;25.23;19.47;;;19.80;99.90;;;;;;5015992;28;20551;-69
2023/06/30 05:45:21;;;;;;;29.50;18.87;;;19.80;99.90;;;;;;5017033;28;20434;-69
2023/06/30 05:47:48;;;;;;;28.43;19.17;;;19.90;99.90;;;;;;5016439;28;20473;-70
2023/06/30 05:50:17;;;;;;;23.60;18.73;;;19.80;99.90;;;;;;5015223;28;20471;-70
2023/06/30 05:52:44;;;;;;;27.90;19.20;;;19.80;99.90;;;;;;5015785;28;20454;-69
2023/06/30 05:55:11;;;;;;;26.50;19.90;;;19.80;99.90;;;;;;5015830;28;20481;-69
2023/06/30 05:57:38;;;;;;;30.37;21.40;;;19.80;99.90;;;;;;5015407;28;20450;-69
2023/06/30 06:00:10;;;;;;;34.70;25.60;;;19.80;99.90;;;;;;5015353;28;20916;-70
2023/06/30 06:02:38;;;;;;;26.70;19.57;;;19.90;99.90;;;;;;5015440;28;20437;-69
2023/06/30 06:05:06;;;;;;;27.70;19.90;;;20.00;99.90;;;;;;5015274;28;20474;-68
2023/06/30 06:07:33;;;;;;;25.07;19.43;;;20.00;99.90;;;;;;5015422;28;20800;-69
2023/06/30 06:10:02;;;;;;;23.77;17.23;;;20.00;99.90;;;;;;5015195;28;20775;-69
2023/06/30 06:12:29;;;;;;;26.53;18.93;;;20.00;99.90;;;;;;5015669;28;20430;-69
2023/06/30 06:14:57;;;;;;;22.73;16.53;;;20.00;99.90;;;;;;5015159;28;20435;-69
2023/06/30 06:17:26;;;;;;;28.80;20.10;;;20.00;99.90;;;;;;5015013;28;20446;-69
2023/06/30 06:19:58;;;;;;;31.30;18.13;;;20.10;99.90;;;;;;5011065;28;20437;-69
2023/06/30 06:22:26;;;;;;;27.03;18.60;;;20.10;99.90;;;;;;5014776;28;20419;-69
2023/06/30 06:24:57;;;;;;;26.70;19.17;;;20.10;99.90;;;;;;5014429;28;20431;-69
2023/06/30 06:27:29;;;;;;;30.63;18.80;;;20.10;99.90;;;;;;5014473;28;20469;-69
2023/06/30 06:29:57;;;;;;;28.77;20.10;;;20.10;99.90;;;;;;5014221;28;20430;-74
2023/06/30 06:32:26;;;;;;;24.13;17.97;;;20.10;99.90;;;;;;5013922;28;20918;-69
2023/06/30 06:34:54;;;;;;;21.40;15.83;;;20.10;99.90;;;;;;5015168;28;20434;-68
2023/06/30 06:37:26;;;;;;;26.30;18.23;;;20.20;99.90;;;;;;5010719;28;20530;-72
2023/06/30 06:39:54;;;;;;;27.40;18.57;;;20.20;99.90;;;;;;5014332;28;20820;-69
2023/06/30 06:42:23;;;;;;;21.63;16.60;;;20.20;99.90;;;;;;5014134;28;20465;-69
2023/06/30 06:44:54;;;;;;;26.20;18.80;;;20.30;99.90;;;;;;5011314;28;20433;-70
2023/06/30 06:47:59;;;;;;;24.27;17.13;;;20.30;99.90;;;;;;5014154;28;20852;-69
2023/06/30 06:50:32;;;;;;;25.20;18.60;;;20.30;99.90;;;;;;5014304;28;20471;-68
2023/06/30 06:53:00;;;;;;;24.20;17.10;;;20.40;99.90;;;;;;4995025;28;20525;-69
2023/06/30 06:55:32;;;;;;;25.30;18.57;;;20.40;99.90;;;;;;4994106;28;20462;-70
2023/06/30 06:57:59;;;;;;;23.00;16.67;;;20.40;99.90;;;;;;4994583;28;20910;-69
2023/06/30 07:00:26;;;;;;;24.77;16.50;;;20.40;99.90;;;;;;5001319;28;20428;-69
2023/06/30 07:02:53;;;;;;;22.90;17.27;;;20.50;99.90;;;;;;5025002;28;20449;-69
2023/06/30 07:05:20;;;;;;;25.33;18.23;;;20.50;99.90;;;;;;5021571;28;20496;-70
2023/06/30 07:07:49;;;;;;;26.87;19.37;;;20.50;99.90;;;;;;5029792;28;20465;-69
2023/06/30 07:10:16;;;;;;;27.93;17.87;;;20.60;99.90;;;;;;5011220;28;20477;-69
2023/06/30 07:12:44;;;;;;;29.50;18.23;;;20.60;99.90;;;;;;5014756;28;20502;-69
2023/06/30 07:15:12;;;;;;;23.97;18.03;;;20.60;99.90;;;;;;5014357;28;20493;-69
2023/06/30 07:17:39;;;;;;;23.50;18.20;;;20.70;99.90;;;;;;5014201;28;20447;-69
2023/06/30 07:20:07;;;;;;;25.60;16.67;;;20.70;99.90;;;;;;5014627;28;20459;-69
2023/06/30 07:22:33;;;;;;;23.03;15.57;;;20.70;99.90;;;;;;5014327;28;20435;-69
2023/06/30 07:25:02;;;;;;;26.67;18.63;;;20.80;99.90;;;;;;5014443;28;20427;-69
2023/06/30 07:27:30;;;;;;;24.27;18.10;;;20.80;99.90;;;;;;5014188;28;20984;-69
2023/06/30 07:29:57;;;;;;;23.27;17.77;;;20.80;99.90;;;;;;5014384;28;20821;-69
2023/06/30 07:32:24;;;;;;;26.90;18.80;;;20.80;99.90;;;;;;5014116;28;20424;-69
2023/06/30 07:34:51;;;;;;;25.50;18.00;;;20.90;99.90;;;;;;5014142;28;20439;-70
2023/06/30 07:37:18;;;;;;;21.60;16.40;;;21.00;99.90;;;;;;5014047;28;20493;-70
2023/06/30 07:39:45;;;;;;;24.23;17.00;;;21.00;99.90;;;;;;5014074;28;20482;-69
2023/06/30 07:42:14;;;;;;;24.90;18.57;;;21.10;99.90;;;;;;5013905;28;20532;-69
2023/06/30 07:44:42;;;;;;;28.40;18.40;;;21.20;99.90;;;;;;5013963;28;20431;-69
2023/06/30 07:47:09;;;;;;;25.20;17.83;;;21.20;99.90;;;;;;5014003;28;20464;-69
2023/06/30 07:49:37;;;;;;;25.87;17.73;;;21.20;99.90;;;;;;5014278;28;20503;-68
2023/06/30 07:52:05;;;;;;;23.80;17.17;;;21.40;99.90;;;;;;5013929;28;20451;-68
2023/06/30 07:54:32;;;;;;;27.97;19.70;;;21.40;99.90;;;;;;5014233;28;20847;-70
2023/06/30 07:57:00;;;;;;;25.93;17.90;;;21.50;99.90;;;;;;5013678;28;20447;-69
2023/06/30 07:59:29;;;;;;;24.60;17.20;;;21.60;99.90;;;;;;5014020;28;20432;-68
2023/06/30 08:01:58;;;;;;;24.10;16.73;;;21.60;99.80;;;;;;5014041;28;20498;-69
2023/06/30 08:04:26;;;;;;;23.50;17.70;;;21.60;98.40;;;;;;5013771;28;20522;-69
2023/06/30 08:06:54;;;;;;;25.33;17.80;;;21.70;98.30;;;;;;5011660;28;20978;-69
2023/06/30 08:09:21;;;;;;;23.47;17.00;;;21.80;98.70;;;;;;5014048;28;20466;-69
2023/06/30 08:11:48;;;;;;;29.43;18.70;;;21.90;99.10;;;;;;5013570;28;20490;-69
2023/06/30 08:14:15;;;;;;;29.00;18.40;;;22.00;98.60;;;;;;4981793;28;20802;-70
2023/06/30 08:16:45;;;;;;;27.23;19.53;;;22.10;98.90;;;;;;4994303;28;20492;-68
2023/06/30 08:19:12;;;;;;;27.50;17.70;;;22.20;99.30;;;;;;4993153;28;20519;-68
2023/06/30 08:21:39;;;;;;;25.13;18.70;;;22.40;99.20;;;;;;4994037;28;20862;-68
2023/06/30 08:24:07;;;;;;;22.33;17.50;;;22.60;98.90;;;;;;5016429;28;20431;-68
2023/06/30 08:26:34;;;;;;;24.33;17.77;;;22.70;97.30;;;;;;5033495;28;20458;-69
2023/06/30 08:29:01;;;;;;;24.80;17.30;;;22.80;96.00;;;;;;5032809;28;20462;-69
2023/06/30 08:31:28;;;;;;;29.20;19.83;;;22.90;94.70;;;;;;5031409;28;20427;-70
2023/06/30 08:34:02;;;;;;;25.17;17.90;;;22.90;94.40;;;;;;5032001;28;20466;-69
2023/06/30 08:36:29;;;;;;;27.07;19.90;;;23.00;93.90;;;;;;5032597;28;20433;-69
2023/06/30 08:38:56;;;;;;;25.83;18.87;;;23.00;94.40;;;;;;5031579;28;20439;-69
2023/06/30 08:41:25;;;;;;;22.60;17.47;;;23.00;93.60;;;;;;5033108;28;20429;-68
2023/06/30 08:43:52;;;;;;;22.60;16.80;;;23.00;94.10;;;;;;5032771;28;20885;-69
2023/06/30 08:46:23;;;;;;;27.50;19.70;;;23.00;94.30;;;;;;5033117;28;20929;-68
2023/06/30 08:48:52;;;;;;;23.63;17.00;;;23.00;95.20;;;;;;5032723;28;20944;-68
2023/06/30 08:51:21;;;;;;;24.60;18.43;;;23.00;95.30;;;;;;5032812;28;20439;-69
2023/06/30 08:53:49;;;;;;;24.10;16.80;;;23.00;95.40;;;;;;5033077;28;20917;-69
2023/06/30 08:56:17;;;;;;;23.50;17.30;;;23.00;94.90;;;;;;5032670;28;20517;-69
2023/06/30 08:58:44;;;;;;;25.20;17.40;;;22.90;95.50;;;;;;5033247;28;20435;-69
2023/06/30 09:01:13;;;;;;;24.87;17.47;;;22.90;95.40;;;;;;5032969;28;20462;-69
2023/06/30 09:03:41;;;;;;;29.40;19.53;;;22.80;95.40;;;;;;5032866;28;20749;-69
2023/06/30 09:06:13;;;;;;;29.80;18.90;;;22.80;95.50;;;;;;5033287;28;20423;-69
2023/06/30 09:08:48;;;;;;;29.43;19.23;;;22.70;95.30;;;;;;5033134;28;20529;-69
2023/06/30 09:11:17;;;;;;;27.50;19.40;;;22.60;94.90;;;;;;5033390;28;20423;-68
2023/06/30 09:13:45;;;;;;;27.03;17.20;;;22.60;95.30;;;;;;5032892;28;20493;-69
2023/06/30 09:16:17;;;;;;;23.57;18.53;;;22.50;95.60;;;;;;5032856;28;20467;-69
2023/06/30 09:18:49;;;;;;;28.93;19.37;;;22.40;96.00;;;;;;5034900;28;20427;-69
2023/06/30 09:21:16;;;;;;;26.47;19.77;;;22.30;96.50;;;;;;5036749;28;20421;-69
2023/06/30 09:23:44;;;;;;;27.50;19.07;;;22.20;96.10;;;;;;5036797;28;20440;-69
2023/06/30 09:26:15;;;;;;;29.30;18.23;;;22.20;97.00;;;;;;5036457;28;20493;-69
2023/06/30 09:28:46;;;;;;;26.30;18.30;;;22.20;97.90;;;;;;5036583;28;20475;-69
2023/06/30 09:31:13;;;;;;;24.97;18.03;;;22.10;98.50;;;;;;5036800;28;20473;-69
2023/06/30 09:33:40;;;;;;;23.97;18.30;;;22.10;99.00;;;;;;5036270;28;20955;-72
2023/06/30 09:36:08;;;;;;;25.33;20.23;;;22.10;99.20;;;;;;5036264;28;21007;-69
2023/06/30 09:38:36;;;;;;;30.13;19.23;;;22.10;99.30;;;;;;5036190;28;20909;-68
2023/06/30 09:41:18;;;;;;;28.40;19.63;;;22.10;99.90;;;;;;5036419;28;20459;-69
2023/06/30 09:43:45;;;;;;;29.07;19.47;;;22.10;99.90;;;;;;5035954;28;20499;-69
2023/06/30 09:46:13;;;;;;;25.13;19.83;;;22.20;99.90;;;;;;5036463;28;20439;-69
2023/06/30 09:48:42;;;;;;;27.50;19.50;;;22.20;99.90;;;;;;5036056;28;20466;-69
2023/06/30 09:51:12;;;;;;;26.23;19.23;;;22.30;99.90;;;;;;5035972;28;20442;-69
2023/06/30 09:53:40;;;;;;;25.20;18.70;;;22.30;99.90;;;;;;5036244;28;20786;-69
2023/06/30 09:56:10;;;;;;;27.93;19.63;;;22.40;99.90;;;;;;5035864;28;20478;-68
2023/06/30 09:58:42;;;;;;;27.47;18.10;;;22.40;99.90;;;;;;5036062;28;20440;-69
2023/06/30 10:01:09;;;;;;;25.17;17.47;;;22.50;99.90;;;;;;5036107;28;20420;-68
2023/06/30 10:03:47;;;;;;;21.80;16.70;;;22.50;99.90;;;;;;5036094;28;20435;-69
2023/06/30 10:06:15;;;;;;;21.83;15.37;;;22.60;99.90;;;;;;5035767;28;20905;-68
2023/06/30 10:08:42;;;;;;;21.97;14.90;;;22.70;99.90;;;;;;5035304;28;21018;-69
2023/06/30 10:11:11;;;;;;;22.33;15.50;;;22.80;99.90;;;;;;5035096;28;20475;-69
2023/06/30 10:13:40;;;;;;;24.70;15.10;;;22.80;99.60;;;;;;5035338;28;20427;-69
2023/06/30 10:16:08;;;;;;;27.37;16.47;;;22.80;99.30;;;;;;5035819;28;20506;-68
2023/06/30 10:18:38;;;;;;;21.03;14.93;;;22.80;98.80;;;;;;5035645;28;20443;-69
2023/06/30 10:21:05;;;;;;;19.10;15.03;;;22.90;98.80;;;;;;5035742;28;20420;-68
2023/06/30 10:23:35;;;;;;;19.77;15.00;;;22.90;98.00;;;;;;5035449;28;20436;-69
2023/06/30 10:26:05;;;;;;;20.77;14.87;;;23.00;98.00;;;;;;5035743;28;20435;-68
2023/06/30 10:28:35;;;;;;;19.47;14.33;;;23.10;96.90;;;;;;5035659;28;20495;-68
2023/06/30 10:31:03;;;;;;;24.07;16.13;;;23.20;96.70;;;;;;5034515;28;20434;-69
2023/06/30 10:33:30;;;;;;;27.90;18.77;;;23.20;96.30;;;;;;5035470;28;20440;-68
2023/06/30 10:35:58;;;;;;;22.33;16.00;;;23.30;96.60;;;;;;5035183;28;20431;-68
2023/06/30 10:38:25;;;;;;;25.23;15.53;;;23.30;95.80;;;;;;5035376;28;20439;-68
2023/06/30 10:41:12;;;;;;;24.63;17.20;;;23.30;96.30;;;;;;5035052;28;20430;-68
2023/06/30 10:44:06;;;;;;;25.67;16.93;;;23.30;95.80;;;;;;5035025;28;20876;-69
2023/06/30 10:46:51;;;;;;;21.73;16.03;;;23.30;95.60;;;;;;5035301;28;20420;-68
2023/06/30 10:49:26;;;;;;;22.73;16.50;;;23.40;95.40;;;;;;5035038;28;20462;-69
2023/06/30 10:51:58;;;;;;;21.73;16.10;;;23.40;96.00;;;;;;5034913;28;20429;-69
2023/06/30 10:54:27;;;;;;;23.17;17.10;;;23.40;96.10;;;;;;5035258;28;20420;-69
2023/06/30 10:57:06;;;;;;;21.33;16.10;;;23.30;95.50;;;;;;5034644;28;20467;-69
2023/06/30 10:59:40;;;;;;;22.80;17.30;;;23.30;95.20;;;;;;5034968;28;20452;-69
2023/06/30 11:02:11;;;;;;;23.60;16.33;;;23.30;95.00;;;;;;5034704;28;20421;-68
2023/06/30 11:04:39;;;;;;;24.17;17.87;;;23.30;96.00;;;;;;5034764;28;20436;-68
2023/06/30 11:07:07;;;;;;;21.80;15.67;;;23.40;96.50;;;;;;5032275;28;21052;-69
2023/06/30 11:10:03;;;;;;;27.37;18.83;;;23.40;96.90;;;;;;5014726;28;20472;-69
2023/06/30 11:12:51;;;;;;;22.57;15.77;;;23.50;97.50;;;;;;5014635;28;20432;-69
2023/06/30 11:15:34;;;;;;;22.03;16.70;;;23.70;97.40;;;;;;4995579;28;20513;-69
2023/06/30 11:18:07;;;;;;;20.63;15.80;;;23.70;96.00;;;;;;5002269;28;20468;-69
2023/06/30 11:20:34;;;;;;;21.87;16.63;;;23.80;95.70;;;;;;5014110;28;20452;-69
2023/06/30 11:23:27;;;;;;;23.67;16.13;;;23.80;95.40;;;;;;5011199;28;20520;-73
2023/06/30 11:25:57;;;;;;;23.30;17.10;;;23.70;93.80;;;;;;5014758;28;20766;-68
2023/06/30 11:28:29;;;;;;;20.93;15.73;;;23.70;94.00;;;;;;5014447;28;20479;-68
2023/06/30 11:31:00;;;;;;;21.67;17.70;;;23.70;94.00;;;;;;5014646;28;20440;-68
2023/06/30 11:33:27;;;;;;;24.67;15.70;;;23.70;94.40;;;;;;5022913;28;20773;-69
2023/06/30 11:35:59;;;;;;;27.33;17.40;;;23.70;93.80;;;;;;5008620;28;20469;-69
2023/06/30 11:38:26;;;;;;;21.67;16.57;;;23.70;94.30;;;;;;5013585;28;20429;-68
2023/06/30 11:40:59;;;;;;;22.37;16.80;;;23.70;94.50;;;;;;5014130;28;20433;-68
2023/06/30 11:43:33;;;;;;;20.77;15.10;;;23.70;94.60;;;;;;5013742;28;20466;-68
2023/06/30 11:46:01;;;;;;;23.73;16.17;;;23.70;94.60;;;;;;5014105;28;20830;-68
2023/06/30 11:48:31;;;;;;;21.80;17.27;;;23.70;94.60;;;;;;5017042;28;20481;-69
2023/06/30 11:50:59;;;;;;;20.30;16.37;;;23.70;93.90;;;;;;5025301;28;20513;-69
2023/06/30 11:53:26;;;;;;;24.07;17.57;;;23.70;93.20;;;;;;5014110;28;20924;-68
2023/06/30 11:55:53;;;;;;;20.50;14.60;;;23.60;92.70;;;;;;5011123;28;20494;-69
2023/06/30 11:58:20;;;;;;;22.57;16.50;;;23.60;92.80;;;;;;5013431;28;20498;-69
2023/06/30 12:00:47;;;;;;;23.00;17.27;;;23.60;93.00;;;;;;5019854;28;20459;-69
2023/06/30 12:03:17;;;;;;;25.27;16.83;;;23.50;93.80;;;;;;5021606;28;20503;-68
2023/06/30 12:05:55;;;;;;;29.00;17.00;;;23.50;94.00;;;;;;5028779;28;20430;-68
2023/06/30 12:08:24;;;;;;;22.43;15.83;;;23.60;95.00;;;;;;5033784;28;20543;-69
2023/06/30 12:10:51;;;;;;;22.27;15.43;;;23.60;95.60;;;;;;5033483;28;20938;-69
2023/06/30 12:13:18;;;;;;;24.30;16.50;;;23.70;95.00;;;;;;5033435;28;20909;-68
2023/06/30 12:15:45;;;;;;;22.27;16.77;;;23.70;93.00;;;;;;5033665;28;20528;-69
2023/06/30 12:18:17;;;;;;;22.90;17.47;;;23.60;92.80;;;;;;5033595;28;20800;-69
2023/06/30 12:20:46;;;;;;;22.83;16.07;;;23.60;93.50;;;;;;5033692;28;20474;-69
2023/06/30 12:23:13;;;;;;;25.70;18.87;;;23.60;93.80;;;;;;5033199;28;20474;-69
2023/06/30 12:25:48;;;;;;;22.67;17.47;;;23.50;94.70;;;;;;5033468;28;20502;-69
2023/06/30 12:28:15;;;;;;;23.80;17.40;;;23.50;95.00;;;;;;5033699;28;20549;-69
2023/06/30 12:30:45;;;;;;;22.50;18.50;;;23.50;95.60;;;;;;5033509;28;20437;-69
2023/06/30 12:33:22;;;;;;;24.73;17.53;;;23.50;95.80;;;;;;5033465;28;20502;-69
2023/06/30 12:35:50;;;;;;;26.60;17.90;;;23.60;96.50;;;;;;5033171;28;20906;-69